sensor_id;sensor_type;location;lat;lon;timestamp;P1;durP1;ratioP1;P2;durP2;ratioP2
59273;SDS011;45044;41.572;24.730;2023-08-01T00:00:10;16.27;;;11.82;;
59273;SDS011;45044;41.572;24.730;2023-08-01T00:02:40;15.32;;;11.43;;
59273;SDS011;45044;41.572;24.730;2023-08-01T00:05:09;16.17;;;11.73;;
59273;SDS011;45044;41.572;24.730;2023-08-01T00:07:36;14.73;;;11.70;;
59273;SDS011;45044;41.572;24.730;2023-08-01T00:10:03;17.00;;;12.02;;
59273;SDS011;45044;41.572;24.730;2023-08-01T00:12:31;14.48;;;11.05;;
59273;SDS011;45044;41.572;24.730;2023-08-01T00:14:58;13.90;;;11.73;;
59273;SDS011;45044;41.572;24.730;2023-08-01T00:17:24;15.52;;;11.65;;
59273;SDS011;45044;41.572;24.730;2023-08-01T00:19:51;16.40;;;12.23;;
59273;SDS011;45044;41.572;24.730;2023-08-01T00:22:18;13.80;;;11.32;;
59273;SDS011;45044;41.572;24.730;2023-08-01T00:24:45;13.20;;;11.38;;
59273;SDS011;45044;41.572;24.730;2023-08-01T00:27:14;14.85;;;12.55;;
59273;SDS011;45044;41.572;24.730;2023-08-01T00:29:40;14.30;;;11.07;;
59273;SDS011;45044;41.572;24.730;2023-08-01T00:32:07;13.73;;;10.98;;
59273;SDS011;45044;41.572;24.730;2023-08-01T00:34:34;15.93;;;11.50;;
59273;SDS011;45044;41.572;24.730;2023-08-01T00:37:01;14.18;;;10.70;;
59273;SDS011;45044;41.572;24.730;2023-08-01T00:39:28;14.85;;;11.93;;
59273;SDS011;45044;41.572;24.730;2023-08-01T00:41:55;17.40;;;12.55;;
59273;SDS011;45044;41.572;24.730;2023-08-01T00:44:21;16.60;;;11.68;;
59273;SDS011;45044;41.572;24.730;2023-08-01T00:46:48;15.68;;;12.73;;
59273;SDS011;45044;41.572;24.730;2023-08-01T00:49:16;15.23;;;12.45;;
59273;SDS011;45044;41.572;24.730;2023-08-01T00:51:43;15.82;;;12.43;;
59273;SDS011;45044;41.572;24.730;2023-08-01T00:54:10;16.45;;;12.82;;
59273;SDS011;45044;41.572;24.730;2023-08-01T00:56:37;15.95;;;13.25;;
59273;SDS011;45044;41.572;24.730;2023-08-01T00:59:04;18.88;;;14.90;;
59273;SDS011;45044;41.572;24.730;2023-08-01T01:01:31;15.90;;;13.38;;
59273;SDS011;45044;41.572;24.730;2023-08-01T01:03:58;16.48;;;13.15;;
59273;SDS011;45044;41.572;24.730;2023-08-01T01:06:32;14.93;;;12.18;;
59273;SDS011;45044;41.572;24.730;2023-08-01T01:09:14;17.27;;;13.25;;
59273;SDS011;45044;41.572;24.730;2023-08-01T01:11:42;16.58;;;12.48;;
59273;SDS011;45044;41.572;24.730;2023-08-01T01:14:09;15.07;;;12.52;;
59273;SDS011;45044;41.572;24.730;2023-08-01T01:16:36;15.75;;;12.20;;
59273;SDS011;45044;41.572;24.730;2023-08-01T01:19:06;15.75;;;11.95;;
59273;SDS011;45044;41.572;24.730;2023-08-01T01:21:35;14.27;;;11.85;;
59273;SDS011;45044;41.572;24.730;2023-08-01T01:24:21;14.52;;;12.07;;
59273;SDS011;45044;41.572;24.730;2023-08-01T01:26:48;17.85;;;12.18;;
59273;SDS011;45044;41.572;24.730;2023-08-01T01:29:16;16.33;;;10.88;;
59273;SDS011;45044;41.572;24.730;2023-08-01T01:31:44;15.52;;;10.88;;
59273;SDS011;45044;41.572;24.730;2023-08-01T01:34:12;16.05;;;11.98;;
59273;SDS011;45044;41.572;24.730;2023-08-01T01:36:39;14.40;;;11.35;;
59273;SDS011;45044;41.572;24.730;2023-08-01T01:39:06;14.52;;;11.63;;
59273;SDS011;45044;41.572;24.730;2023-08-01T01:41:33;15.10;;;12.90;;
59273;SDS011;45044;41.572;24.730;2023-08-01T01:44:00;17.40;;;13.13;;
59273;SDS011;45044;41.572;24.730;2023-08-01T01:46:26;15.77;;;12.57;;
59273;SDS011;45044;41.572;24.730;2023-08-01T01:48:53;15.68;;;12.70;;
59273;SDS011;45044;41.572;24.730;2023-08-01T01:51:25;16.35;;;13.27;;
59273;SDS011;45044;41.572;24.730;2023-08-01T01:53:52;16.60;;;12.93;;
59273;SDS011;45044;41.572;24.730;2023-08-01T01:56:19;13.98;;;11.13;;
59273;SDS011;45044;41.572;24.730;2023-08-01T01:58:46;15.63;;;12.15;;
59273;SDS011;45044;41.572;24.730;2023-08-01T02:01:12;15.25;;;11.70;;
59273;SDS011;45044;41.572;24.730;2023-08-01T02:03:39;16.15;;;12.00;;
59273;SDS011;45044;41.572;24.730;2023-08-01T02:06:06;15.48;;;11.95;;
59273;SDS011;45044;41.572;24.730;2023-08-01T02:08:33;14.30;;;11.90;;
59273;SDS011;45044;41.572;24.730;2023-08-01T02:10:59;14.68;;;11.10;;
59273;SDS011;45044;41.572;24.730;2023-08-01T02:13:27;18.50;;;13.38;;
59273;SDS011;45044;41.572;24.730;2023-08-01T02:15:54;14.70;;;12.68;;
59273;SDS011;45044;41.572;24.730;2023-08-01T02:18:21;16.92;;;12.48;;
59273;SDS011;45044;41.572;24.730;2023-08-01T02:20:48;17.65;;;13.27;;
59273;SDS011;45044;41.572;24.730;2023-08-01T02:23:15;15.98;;;11.90;;
59273;SDS011;45044;41.572;24.730;2023-08-01T02:25:42;17.10;;;13.32;;
59273;SDS011;45044;41.572;24.730;2023-08-01T02:28:09;19.90;;;14.38;;
59273;SDS011;45044;41.572;24.730;2023-08-01T02:30:36;16.55;;;12.77;;
59273;SDS011;45044;41.572;24.730;2023-08-01T02:33:03;19.00;;;13.73;;
59273;SDS011;45044;41.572;24.730;2023-08-01T02:35:30;19.42;;;14.35;;
59273;SDS011;45044;41.572;24.730;2023-08-01T02:37:57;20.00;;;13.15;;
59273;SDS011;45044;41.572;24.730;2023-08-01T02:40:24;18.52;;;14.43;;
59273;SDS011;45044;41.572;24.730;2023-08-01T02:42:53;16.20;;;12.80;;
59273;SDS011;45044;41.572;24.730;2023-08-01T02:45:19;15.63;;;12.60;;
59273;SDS011;45044;41.572;24.730;2023-08-01T02:47:46;15.07;;;12.52;;
59273;SDS011;45044;41.572;24.730;2023-08-01T02:50:13;16.33;;;12.73;;
59273;SDS011;45044;41.572;24.730;2023-08-01T02:52:40;14.70;;;11.43;;
59273;SDS011;45044;41.572;24.730;2023-08-01T02:55:07;14.98;;;11.15;;
59273;SDS011;45044;41.572;24.730;2023-08-01T02:57:34;15.52;;;11.98;;
59273;SDS011;45044;41.572;24.730;2023-08-01T03:00:00;16.23;;;12.23;;
59273;SDS011;45044;41.572;24.730;2023-08-01T03:02:31;16.55;;;12.52;;
59273;SDS011;45044;41.572;24.730;2023-08-01T03:04:58;14.73;;;11.55;;
59273;SDS011;45044;41.572;24.730;2023-08-01T03:07:25;14.60;;;11.35;;
59273;SDS011;45044;41.572;24.730;2023-08-01T03:09:52;16.05;;;11.93;;
59273;SDS011;45044;41.572;24.730;2023-08-01T03:12:18;16.35;;;11.75;;
59273;SDS011;45044;41.572;24.730;2023-08-01T03:14:46;16.00;;;11.95;;
59273;SDS011;45044;41.572;24.730;2023-08-01T03:17:14;15.52;;;10.75;;
59273;SDS011;45044;41.572;24.730;2023-08-01T03:19:41;15.77;;;12.00;;
59273;SDS011;45044;41.572;24.730;2023-08-01T03:22:08;15.02;;;11.60;;
59273;SDS011;45044;41.572;24.730;2023-08-01T03:24:40;15.32;;;11.73;;
59273;SDS011;45044;41.572;24.730;2023-08-01T03:27:07;16.23;;;11.88;;
59273;SDS011;45044;41.572;24.730;2023-08-01T03:29:34;14.70;;;11.85;;
59273;SDS011;45044;41.572;24.730;2023-08-01T03:32:01;13.75;;;11.02;;
59273;SDS011;45044;41.572;24.730;2023-08-01T03:34:28;14.68;;;10.60;;
59273;SDS011;45044;41.572;24.730;2023-08-01T03:36:55;13.70;;;10.32;;
59273;SDS011;45044;41.572;24.730;2023-08-01T03:39:21;14.40;;;10.23;;
59273;SDS011;45044;41.572;24.730;2023-08-01T03:41:48;13.13;;;10.02;;
59273;SDS011;45044;41.572;24.730;2023-08-01T03:44:15;14.13;;;11.00;;
59273;SDS011;45044;41.572;24.730;2023-08-01T03:46:43;13.25;;;10.30;;
59273;SDS011;45044;41.572;24.730;2023-08-01T03:49:10;12.30;;;8.98;;
59273;SDS011;45044;41.572;24.730;2023-08-01T03:51:37;12.10;;;9.40;;
59273;SDS011;45044;41.572;24.730;2023-08-01T03:54:04;12.73;;;9.57;;
59273;SDS011;45044;41.572;24.730;2023-08-01T03:56:39;12.48;;;9.15;;
59273;SDS011;45044;41.572;24.730;2023-08-01T03:59:11;13.10;;;9.35;;
59273;SDS011;45044;41.572;24.730;2023-08-01T04:01:39;13.70;;;9.60;;
59273;SDS011;45044;41.572;24.730;2023-08-01T04:04:07;14.95;;;9.57;;
59273;SDS011;45044;41.572;24.730;2023-08-01T04:06:35;13.02;;;9.13;;
59273;SDS011;45044;41.572;24.730;2023-08-01T04:09:02;13.48;;;9.77;;
59273;SDS011;45044;41.572;24.730;2023-08-01T04:11:28;12.38;;;9.50;;
59273;SDS011;45044;41.572;24.730;2023-08-01T04:13:56;12.48;;;9.77;;
59273;SDS011;45044;41.572;24.730;2023-08-01T04:16:23;14.93;;;11.00;;
59273;SDS011;45044;41.572;24.730;2023-08-01T04:18:50;14.98;;;10.18;;
59273;SDS011;45044;41.572;24.730;2023-08-01T04:21:17;12.65;;;9.25;;
59273;SDS011;45044;41.572;24.730;2023-08-01T04:23:45;13.07;;;9.82;;
59273;SDS011;45044;41.572;24.730;2023-08-01T04:26:11;14.40;;;10.18;;
59273;SDS011;45044;41.572;24.730;2023-08-01T04:28:38;14.52;;;9.30;;
59273;SDS011;45044;41.572;24.730;2023-08-01T04:31:05;15.82;;;9.90;;
59273;SDS011;45044;41.572;24.730;2023-08-01T04:33:32;12.93;;;10.10;;
59273;SDS011;45044;41.572;24.730;2023-08-01T04:35:59;11.38;;;9.18;;
59273;SDS011;45044;41.572;24.730;2023-08-01T04:38:26;11.32;;;8.70;;
59273;SDS011;45044;41.572;24.730;2023-08-01T04:40:52;13.75;;;9.30;;
59273;SDS011;45044;41.572;24.730;2023-08-01T04:43:19;11.85;;;9.13;;
59273;SDS011;45044;41.572;24.730;2023-08-01T04:45:46;13.32;;;9.65;;
59273;SDS011;45044;41.572;24.730;2023-08-01T04:48:12;13.18;;;8.43;;
59273;SDS011;45044;41.572;24.730;2023-08-01T04:50:39;12.35;;;9.30;;
59273;SDS011;45044;41.572;24.730;2023-08-01T04:53:06;14.13;;;9.18;;
59273;SDS011;45044;41.572;24.730;2023-08-01T04:55:33;13.48;;;9.00;;
59273;SDS011;45044;41.572;24.730;2023-08-01T04:57:59;14.13;;;11.13;;
59273;SDS011;45044;41.572;24.730;2023-08-01T05:00:26;13.90;;;10.32;;
59273;SDS011;45044;41.572;24.730;2023-08-01T05:02:54;13.00;;;9.88;;
59273;SDS011;45044;41.572;24.730;2023-08-01T05:05:21;13.43;;;9.80;;
59273;SDS011;45044;41.572;24.730;2023-08-01T05:07:48;12.05;;;8.60;;
59273;SDS011;45044;41.572;24.730;2023-08-01T05:10:14;13.02;;;8.63;;
59273;SDS011;45044;41.572;24.730;2023-08-01T05:12:43;11.88;;;8.48;;
59273;SDS011;45044;41.572;24.730;2023-08-01T05:15:10;10.65;;;8.20;;
59273;SDS011;45044;41.572;24.730;2023-08-01T05:17:37;9.45;;;7.75;;
59273;SDS011;45044;41.572;24.730;2023-08-01T05:20:04;10.38;;;7.72;;
59273;SDS011;45044;41.572;24.730;2023-08-01T05:22:31;8.48;;;7.38;;
59273;SDS011;45044;41.572;24.730;2023-08-01T05:24:58;9.35;;;7.22;;
59273;SDS011;45044;41.572;24.730;2023-08-01T05:27:27;8.65;;;6.80;;
59273;SDS011;45044;41.572;24.730;2023-08-01T05:29:54;9.52;;;6.72;;
59273;SDS011;45044;41.572;24.730;2023-08-01T05:32:20;9.95;;;7.30;;
59273;SDS011;45044;41.572;24.730;2023-08-01T05:34:47;10.65;;;7.35;;
59273;SDS011;45044;41.572;24.730;2023-08-01T05:37:14;10.32;;;7.20;;
59273;SDS011;45044;41.572;24.730;2023-08-01T05:39:41;9.40;;;6.80;;
59273;SDS011;45044;41.572;24.730;2023-08-01T05:42:07;11.30;;;6.35;;
59273;SDS011;45044;41.572;24.730;2023-08-01T05:44:35;9.13;;;5.97;;
59273;SDS011;45044;41.572;24.730;2023-08-01T05:47:02;9.43;;;7.22;;
59273;SDS011;45044;41.572;24.730;2023-08-01T05:49:29;7.93;;;6.90;;
59273;SDS011;45044;41.572;24.730;2023-08-01T05:51:56;6.93;;;5.20;;
59273;SDS011;45044;41.572;24.730;2023-08-01T05:54:23;6.78;;;5.45;;
59273;SDS011;45044;41.572;24.730;2023-08-01T05:56:50;10.00;;;5.90;;
59273;SDS011;45044;41.572;24.730;2023-08-01T05:59:17;6.00;;;4.53;;
59273;SDS011;45044;41.572;24.730;2023-08-01T06:01:44;7.43;;;5.28;;
59273;SDS011;45044;41.572;24.730;2023-08-01T06:04:11;7.47;;;5.63;;
59273;SDS011;45044;41.572;24.730;2023-08-01T06:06:38;6.32;;;5.30;;
59273;SDS011;45044;41.572;24.730;2023-08-01T06:09:05;6.15;;;5.18;;
59273;SDS011;45044;41.572;24.730;2023-08-01T06:11:32;6.18;;;4.97;;
59273;SDS011;45044;41.572;24.730;2023-08-01T06:14:00;7.75;;;5.90;;
59273;SDS011;45044;41.572;24.730;2023-08-01T06:16:27;6.47;;;5.15;;
59273;SDS011;45044;41.572;24.730;2023-08-01T06:18:54;8.18;;;5.70;;
59273;SDS011;45044;41.572;24.730;2023-08-01T06:21:20;7.88;;;5.55;;
59273;SDS011;45044;41.572;24.730;2023-08-01T06:23:47;8.20;;;5.82;;
59273;SDS011;45044;41.572;24.730;2023-08-01T06:26:14;6.05;;;4.95;;
59273;SDS011;45044;41.572;24.730;2023-08-01T06:28:44;6.93;;;5.60;;
59273;SDS011;45044;41.572;24.730;2023-08-01T06:31:11;7.70;;;6.35;;
59273;SDS011;45044;41.572;24.730;2023-08-01T06:33:37;9.25;;;6.72;;
59273;SDS011;45044;41.572;24.730;2023-08-01T06:36:05;10.30;;;7.22;;
59273;SDS011;45044;41.572;24.730;2023-08-01T06:38:32;11.82;;;7.53;;
59273;SDS011;45044;41.572;24.730;2023-08-01T06:40:58;10.57;;;8.25;;
59273;SDS011;45044;41.572;24.730;2023-08-01T06:43:25;12.65;;;10.38;;
59273;SDS011;45044;41.572;24.730;2023-08-01T06:45:52;15.68;;;12.00;;
59273;SDS011;45044;41.572;24.730;2023-08-01T06:48:19;14.27;;;12.77;;
59273;SDS011;45044;41.572;24.730;2023-08-01T06:50:46;15.55;;;13.50;;
59273;SDS011;45044;41.572;24.730;2023-08-01T06:53:13;16.60;;;14.35;;
59273;SDS011;45044;41.572;24.730;2023-08-01T06:55:39;13.75;;;12.10;;
59273;SDS011;45044;41.572;24.730;2023-08-01T06:58:06;14.07;;;12.02;;
59273;SDS011;45044;41.572;24.730;2023-08-01T07:00:33;13.23;;;11.82;;
59273;SDS011;45044;41.572;24.730;2023-08-01T07:03:00;13.80;;;12.40;;
59273;SDS011;45044;41.572;24.730;2023-08-01T07:05:27;13.52;;;12.18;;
59273;SDS011;45044;41.572;24.730;2023-08-01T07:07:54;13.23;;;11.85;;
59273;SDS011;45044;41.572;24.730;2023-08-01T07:10:21;13.23;;;11.82;;
59273;SDS011;45044;41.572;24.730;2023-08-01T07:12:47;14.10;;;12.60;;
59273;SDS011;45044;41.572;24.730;2023-08-01T07:15:14;13.88;;;12.48;;
59273;SDS011;45044;41.572;24.730;2023-08-01T07:17:41;14.13;;;12.73;;
59273;SDS011;45044;41.572;24.730;2023-08-01T07:20:08;13.20;;;11.80;;
59273;SDS011;45044;41.572;24.730;2023-08-01T07:22:35;13.40;;;12.05;;
59273;SDS011;45044;41.572;24.730;2023-08-01T07:25:02;13.73;;;12.32;;
59273;SDS011;45044;41.572;24.730;2023-08-01T07:27:29;12.88;;;11.57;;
59273;SDS011;45044;41.572;24.730;2023-08-01T07:29:55;13.82;;;12.43;;
59273;SDS011;45044;41.572;24.730;2023-08-01T07:32:22;12.48;;;11.27;;
59273;SDS011;45044;41.572;24.730;2023-08-01T07:34:49;12.52;;;11.23;;
59273;SDS011;45044;41.572;24.730;2023-08-01T07:37:16;11.80;;;10.60;;
59273;SDS011;45044;41.572;24.730;2023-08-01T07:39:43;12.82;;;11.40;;
59273;SDS011;45044;41.572;24.730;2023-08-01T07:42:10;12.68;;;11.32;;
59273;SDS011;45044;41.572;24.730;2023-08-01T07:44:36;12.57;;;11.30;;
59273;SDS011;45044;41.572;24.730;2023-08-01T07:47:06;11.73;;;10.52;;
59273;SDS011;45044;41.572;24.730;2023-08-01T07:49:34;10.73;;;9.70;;
59273;SDS011;45044;41.572;24.730;2023-08-01T07:52:00;11.18;;;10.07;;
59273;SDS011;45044;41.572;24.730;2023-08-01T07:54:27;11.65;;;10.45;;
59273;SDS011;45044;41.572;24.730;2023-08-01T07:56:54;10.25;;;9.18;;
59273;SDS011;45044;41.572;24.730;2023-08-01T07:59:21;12.20;;;10.90;;
59273;SDS011;45044;41.572;24.730;2023-08-01T08:01:47;11.43;;;10.23;;
59273;SDS011;45044;41.572;24.730;2023-08-01T08:04:14;11.82;;;10.40;;
59273;SDS011;45044;41.572;24.730;2023-08-01T08:06:41;11.98;;;10.77;;
59273;SDS011;45044;41.572;24.730;2023-08-01T08:09:08;10.48;;;9.32;;
59273;SDS011;45044;41.572;24.730;2023-08-01T08:11:35;11.15;;;10.05;;
59273;SDS011;45044;41.572;24.730;2023-08-01T08:14:02;11.07;;;9.98;;
59273;SDS011;45044;41.572;24.730;2023-08-01T08:16:29;11.68;;;10.45;;
59273;SDS011;45044;41.572;24.730;2023-08-01T08:18:56;12.73;;;11.40;;
59273;SDS011;45044;41.572;24.730;2023-08-01T08:21:23;12.68;;;11.38;;
59273;SDS011;45044;41.572;24.730;2023-08-01T08:23:50;13.07;;;11.57;;
59273;SDS011;45044;41.572;24.730;2023-08-01T08:26:17;12.38;;;10.88;;
59273;SDS011;45044;41.572;24.730;2023-08-01T08:28:44;13.32;;;11.40;;
59273;SDS011;45044;41.572;24.730;2023-08-01T08:31:11;12.30;;;10.40;;
59273;SDS011;45044;41.572;24.730;2023-08-01T08:33:38;13.07;;;11.73;;
59273;SDS011;45044;41.572;24.730;2023-08-01T08:36:04;13.32;;;11.98;;
59273;SDS011;45044;41.572;24.730;2023-08-01T08:38:31;13.00;;;11.57;;
59273;SDS011;45044;41.572;24.730;2023-08-01T08:41:05;12.82;;;11.45;;
59273;SDS011;45044;41.572;24.730;2023-08-01T08:43:37;13.43;;;11.23;;
59273;SDS011;45044;41.572;24.730;2023-08-01T08:46:04;13.40;;;12.00;;
59273;SDS011;45044;41.572;24.730;2023-08-01T08:48:34;13.55;;;12.15;;
59273;SDS011;45044;41.572;24.730;2023-08-01T08:51:01;12.73;;;11.38;;
59273;SDS011;45044;41.572;24.730;2023-08-01T08:53:30;11.93;;;10.40;;
59273;SDS011;45044;41.572;24.730;2023-08-01T08:55:59;11.15;;;9.95;;
59273;SDS011;45044;41.572;24.730;2023-08-01T08:58:31;10.73;;;9.18;;
59273;SDS011;45044;41.572;24.730;2023-08-01T09:01:01;11.32;;;10.13;;
59273;SDS011;45044;41.572;24.730;2023-08-01T09:03:28;10.10;;;8.73;;
59273;SDS011;45044;41.572;24.730;2023-08-01T09:06:30;9.50;;;8.57;;
59273;SDS011;45044;41.572;24.730;2023-08-01T09:09:02;8.85;;;7.95;;
59273;SDS011;45044;41.572;24.730;2023-08-01T09:11:49;11.35;;;10.02;;
59273;SDS011;45044;41.572;24.730;2023-08-01T09:14:19;10.75;;;9.75;;
59273;SDS011;45044;41.572;24.730;2023-08-01T09:16:46;10.18;;;9.18;;
59273;SDS011;45044;41.572;24.730;2023-08-01T09:19:23;10.88;;;7.97;;
59273;SDS011;45044;41.572;24.730;2023-08-01T09:24:20;10.13;;;8.57;;
59273;SDS011;45044;41.572;24.730;2023-08-01T09:26:48;8.70;;;7.70;;
59273;SDS011;45044;41.572;24.730;2023-08-01T09:29:17;10.48;;;8.77;;
59273;SDS011;45044;41.572;24.730;2023-08-01T09:31:45;8.70;;;7.55;;
59273;SDS011;45044;41.572;24.730;2023-08-01T09:34:22;7.80;;;7.00;;
59273;SDS011;45044;41.572;24.730;2023-08-01T09:36:50;9.13;;;7.55;;
59273;SDS011;45044;41.572;24.730;2023-08-01T09:39:18;9.10;;;8.18;;
59273;SDS011;45044;41.572;24.730;2023-08-01T09:42:00;10.23;;;7.30;;
59273;SDS011;45044;41.572;24.730;2023-08-01T09:44:29;7.97;;;7.18;;
59273;SDS011;45044;41.572;24.730;2023-08-01T09:46:59;9.50;;;7.47;;
59273;SDS011;45044;41.572;24.730;2023-08-01T09:49:28;8.35;;;6.78;;
59273;SDS011;45044;41.572;24.730;2023-08-01T09:51:57;7.88;;;7.07;;
59273;SDS011;45044;41.572;24.730;2023-08-01T09:54:29;7.50;;;6.72;;
59273;SDS011;45044;41.572;24.730;2023-08-01T09:56:56;8.88;;;7.25;;
59273;SDS011;45044;41.572;24.730;2023-08-01T09:59:25;8.75;;;6.88;;
59273;SDS011;45044;41.572;24.730;2023-08-01T10:01:56;7.70;;;6.60;;
59273;SDS011;45044;41.572;24.730;2023-08-01T10:04:28;9.07;;;7.18;;
59273;SDS011;45044;41.572;24.730;2023-08-01T10:07:14;7.47;;;6.63;;
59273;SDS011;45044;41.572;24.730;2023-08-01T10:09:48;8.57;;;7.63;;
59273;SDS011;45044;41.572;24.730;2023-08-01T10:12:18;8.02;;;7.13;;
59273;SDS011;45044;41.572;24.730;2023-08-01T10:14:45;8.75;;;7.70;;
59273;SDS011;45044;41.572;24.730;2023-08-01T10:17:12;8.23;;;7.43;;
59273;SDS011;45044;41.572;24.730;2023-08-01T10:19:40;8.95;;;7.68;;
59273;SDS011;45044;41.572;24.730;2023-08-01T10:22:08;8.75;;;7.63;;
59273;SDS011;45044;41.572;24.730;2023-08-01T10:24:36;7.88;;;6.80;;
59273;SDS011;45044;41.572;24.730;2023-08-01T10:27:10;8.52;;;7.70;;
59273;SDS011;45044;41.572;24.730;2023-08-01T10:29:41;8.45;;;7.07;;
59273;SDS011;45044;41.572;24.730;2023-08-01T10:32:09;8.90;;;7.85;;
59273;SDS011;45044;41.572;24.730;2023-08-01T10:34:37;8.40;;;7.60;;
59273;SDS011;45044;41.572;24.730;2023-08-01T10:37:04;9.32;;;7.43;;
59273;SDS011;45044;41.572;24.730;2023-08-01T10:39:31;8.77;;;7.70;;
59273;SDS011;45044;41.572;24.730;2023-08-01T10:41:59;9.20;;;7.72;;
59273;SDS011;45044;41.572;24.730;2023-08-01T10:44:44;8.45;;;7.55;;
59273;SDS011;45044;41.572;24.730;2023-08-01T10:47:12;8.85;;;7.88;;
59273;SDS011;45044;41.572;24.730;2023-08-01T10:49:49;7.32;;;6.45;;
59273;SDS011;45044;41.572;24.730;2023-08-01T10:55:03;8.77;;;7.00;;
59273;SDS011;45044;41.572;24.730;2023-08-01T10:57:38;8.60;;;7.65;;
59273;SDS011;45044;41.572;24.730;2023-08-01T11:00:06;8.55;;;7.53;;
59273;SDS011;45044;41.572;24.730;2023-08-01T11:02:36;9.00;;;7.43;;
59273;SDS011;45044;41.572;24.730;2023-08-01T11:05:07;8.60;;;7.68;;
59273;SDS011;45044;41.572;24.730;2023-08-01T11:07:35;9.05;;;7.63;;
59273;SDS011;45044;41.572;24.730;2023-08-01T11:12:40;8.13;;;7.15;;
59273;SDS011;45044;41.572;24.730;2023-08-01T11:15:08;7.80;;;7.00;;
59273;SDS011;45044;41.572;24.730;2023-08-01T11:17:39;8.02;;;6.88;;
59273;SDS011;45044;41.572;24.730;2023-08-01T11:20:08;8.35;;;7.15;;
59273;SDS011;45044;41.572;24.730;2023-08-01T11:22:37;8.18;;;7.18;;
59273;SDS011;45044;41.572;24.730;2023-08-01T11:25:15;8.68;;;7.10;;
59273;SDS011;45044;41.572;24.730;2023-08-01T11:27:43;8.45;;;6.95;;
59273;SDS011;45044;41.572;24.730;2023-08-01T11:30:14;7.82;;;6.82;;
59273;SDS011;45044;41.572;24.730;2023-08-01T11:32:41;8.45;;;7.35;;
59273;SDS011;45044;41.572;24.730;2023-08-01T11:35:19;7.32;;;5.75;;
59273;SDS011;45044;41.572;24.730;2023-08-01T11:37:45;7.70;;;6.30;;
59273;SDS011;45044;41.572;24.730;2023-08-01T11:40:13;8.07;;;6.55;;
59273;SDS011;45044;41.572;24.730;2023-08-01T11:42:41;7.40;;;6.47;;
59273;SDS011;45044;41.572;24.730;2023-08-01T11:45:09;8.10;;;7.15;;
59273;SDS011;45044;41.572;24.730;2023-08-01T11:47:44;8.35;;;5.90;;
59273;SDS011;45044;41.572;24.730;2023-08-01T11:50:14;8.02;;;6.63;;
59273;SDS011;45044;41.572;24.730;2023-08-01T11:52:47;8.23;;;6.87;;
59273;SDS011;45044;41.572;24.730;2023-08-01T11:55:21;7.13;;;6.00;;
59273;SDS011;45044;41.572;24.730;2023-08-01T11:58:01;7.63;;;6.53;;
59273;SDS011;45044;41.572;24.730;2023-08-01T12:00:30;7.97;;;6.80;;
59273;SDS011;45044;41.572;24.730;2023-08-01T12:03:05;7.70;;;6.05;;
59273;SDS011;45044;41.572;24.730;2023-08-01T12:05:34;7.63;;;6.50;;
59273;SDS011;45044;41.572;24.730;2023-08-01T12:08:08;8.93;;;7.05;;
59273;SDS011;45044;41.572;24.730;2023-08-01T12:10:43;7.13;;;5.97;;
59273;SDS011;45044;41.572;24.730;2023-08-01T12:13:20;8.02;;;6.40;;
59273;SDS011;45044;41.572;24.730;2023-08-01T12:15:52;7.45;;;6.28;;
59273;SDS011;45044;41.572;24.730;2023-08-01T12:18:26;7.93;;;6.65;;
59273;SDS011;45044;41.572;24.730;2023-08-01T12:21:17;6.93;;;6.20;;
59273;SDS011;45044;41.572;24.730;2023-08-01T12:23:44;7.03;;;5.93;;
59273;SDS011;45044;41.572;24.730;2023-08-01T12:26:11;7.93;;;6.22;;
59273;SDS011;45044;41.572;24.730;2023-08-01T12:28:38;8.68;;;6.70;;
59273;SDS011;45044;41.572;24.730;2023-08-01T12:31:05;10.38;;;6.45;;
59273;SDS011;45044;41.572;24.730;2023-08-01T12:33:33;6.78;;;5.65;;
59273;SDS011;45044;41.572;24.730;2023-08-01T12:36:01;8.70;;;6.60;;
59273;SDS011;45044;41.572;24.730;2023-08-01T12:38:29;7.72;;;6.75;;
59273;SDS011;45044;41.572;24.730;2023-08-01T12:41:04;8.57;;;6.65;;
59273;SDS011;45044;41.572;24.730;2023-08-01T12:43:31;7.97;;;6.28;;
59273;SDS011;45044;41.572;24.730;2023-08-01T12:45:59;7.25;;;6.30;;
59273;SDS011;45044;41.572;24.730;2023-08-01T12:48:27;7.70;;;6.60;;
59273;SDS011;45044;41.572;24.730;2023-08-01T12:50:54;7.35;;;6.28;;
59273;SDS011;45044;41.572;24.730;2023-08-01T12:53:23;9.43;;;6.50;;
59273;SDS011;45044;41.572;24.730;2023-08-01T12:55:51;7.93;;;6.30;;
59273;SDS011;45044;41.572;24.730;2023-08-01T12:58:19;7.18;;;5.78;;
59273;SDS011;45044;41.572;24.730;2023-08-01T13:00:52;7.95;;;6.80;;
59273;SDS011;45044;41.572;24.730;2023-08-01T13:03:21;9.05;;;6.78;;
59273;SDS011;45044;41.572;24.730;2023-08-01T13:05:48;9.45;;;6.82;;
59273;SDS011;45044;41.572;24.730;2023-08-01T13:08:15;7.68;;;6.80;;
59273;SDS011;45044;41.572;24.730;2023-08-01T13:10:42;7.50;;;6.25;;
59273;SDS011;45044;41.572;24.730;2023-08-01T13:13:11;7.72;;;6.53;;
59273;SDS011;45044;41.572;24.730;2023-08-01T13:15:40;7.50;;;6.20;;
59273;SDS011;45044;41.572;24.730;2023-08-01T13:18:06;7.82;;;5.70;;
59273;SDS011;45044;41.572;24.730;2023-08-01T13:20:33;9.07;;;6.40;;
59273;SDS011;45044;41.572;24.730;2023-08-01T13:23:03;6.75;;;5.85;;
59273;SDS011;45044;41.572;24.730;2023-08-01T13:25:30;7.03;;;6.25;;
59273;SDS011;45044;41.572;24.730;2023-08-01T13:28:00;9.35;;;6.30;;
59273;SDS011;45044;41.572;24.730;2023-08-01T13:30:26;9.00;;;6.70;;
59273;SDS011;45044;41.572;24.730;2023-08-01T13:32:53;7.90;;;6.00;;
59273;SDS011;45044;41.572;24.730;2023-08-01T13:35:21;7.45;;;5.85;;
59273;SDS011;45044;41.572;24.730;2023-08-01T13:37:48;8.23;;;6.20;;
59273;SDS011;45044;41.572;24.730;2023-08-01T13:40:17;7.80;;;5.78;;
59273;SDS011;45044;41.572;24.730;2023-08-01T13:42:44;8.57;;;6.35;;
59273;SDS011;45044;41.572;24.730;2023-08-01T13:45:11;7.60;;;6.05;;
59273;SDS011;45044;41.572;24.730;2023-08-01T13:47:38;7.45;;;6.28;;
59273;SDS011;45044;41.572;24.730;2023-08-01T13:50:06;8.95;;;6.03;;
59273;SDS011;45044;41.572;24.730;2023-08-01T13:52:33;7.88;;;6.80;;
59273;SDS011;45044;41.572;24.730;2023-08-01T13:55:00;7.30;;;5.93;;
59273;SDS011;45044;41.572;24.730;2023-08-01T13:57:29;7.20;;;6.03;;
59273;SDS011;45044;41.572;24.730;2023-08-01T13:59:56;7.80;;;6.78;;
59273;SDS011;45044;41.572;24.730;2023-08-01T14:02:38;7.43;;;6.72;;
59273;SDS011;45044;41.572;24.730;2023-08-01T14:05:05;8.95;;;6.78;;
59273;SDS011;45044;41.572;24.730;2023-08-01T14:07:35;8.18;;;6.57;;
59273;SDS011;45044;41.572;24.730;2023-08-01T14:10:09;7.65;;;6.85;;
59273;SDS011;45044;41.572;24.730;2023-08-01T14:12:39;9.60;;;6.60;;
59273;SDS011;45044;41.572;24.730;2023-08-01T14:15:06;9.27;;;6.57;;
59273;SDS011;45044;41.572;24.730;2023-08-01T14:17:35;6.97;;;6.20;;
59273;SDS011;45044;41.572;24.730;2023-08-01T14:20:03;9.93;;;6.82;;
59273;SDS011;45044;41.572;24.730;2023-08-01T14:22:34;8.15;;;6.75;;
59273;SDS011;45044;41.572;24.730;2023-08-01T14:25:01;7.75;;;6.28;;
59273;SDS011;45044;41.572;24.730;2023-08-01T14:27:29;8.88;;;5.93;;
59273;SDS011;45044;41.572;24.730;2023-08-01T14:29:56;8.77;;;6.25;;
59273;SDS011;45044;41.572;24.730;2023-08-01T14:32:24;8.13;;;6.07;;
59273;SDS011;45044;41.572;24.730;2023-08-01T14:34:54;9.10;;;7.22;;